Terminal Aerodrome Forecast
Issued by NWS Albany, NY

Home | Current Version | Previous Version | Text Only | Print | Product List | Glossary On
Versions: 1 2 3 4 5 6 7 8 9 10 11 12 13 14 15 16 17 18 19 20 21 22 23
000
FTUS41 KALY 232300 RRA
TAFGFL
TAF
KGFL 232354Z 2400/2424 VRB03KT P6SM OVC050
     FM240200 00000KT P6SM BKN050
     FM240400 00000KT P6SM SCT050
     FM240800 00000KT 2SM BR BKN002
     FM241100 00000KT P6SM SCT002
     FM241400 VRB03KT P6SM SCT030
     FM241800 13005KT P6SM SCT040 SCT250=

USA.gov is the U.S. government's official web portal to all federal, state and local government web resources and services.